createdAt,value
2018-07-06T00:00:35.312Z,95198.28
2018-07-06T00:03:15.087Z,95201.41
2018-07-06T00:05:54.742Z,95203.08
2018-07-06T00:08:34.508Z,95205.99
2018-07-06T00:11:14.259Z,95210.88
2018-07-06T00:13:54.170Z,95204.29
2018-07-06T00:16:34.040Z,95208.78
2018-07-06T00:19:13.716Z,95205.50
2018-07-06T00:21:53.451Z,95208.52
2018-07-06T00:24:33.079Z,95206.05
2018-07-06T00:27:12.971Z,95203.50
2018-07-06T00:29:52.692Z,95204.70
2018-07-06T00:32:32.498Z,95203.52
2018-07-06T00:35:12.216Z,95199.00
2018-07-06T00:37:52.002Z,95199.05
2018-07-06T00:40:31.818Z,95195.17
2018-07-06T00:43:11.594Z,95206.30
2018-07-06T00:45:51.356Z,95201.79
2018-07-06T00:48:31.139Z,95200.98
2018-07-06T00:51:10.855Z,95204.08
2018-07-06T00:53:50.586Z,95202.34
2018-07-06T00:56:30.193Z,95203.52
2018-07-06T00:59:09.975Z,95196.92
2018-07-06T01:01:49.847Z,95195.72
2018-07-06T01:04:29.411Z,95205.52
2018-07-06T01:07:08.958Z,95197.16
2018-07-06T01:09:48.571Z,95197.16
2018-07-06T01:13:31.191Z,95197.89
2018-07-06T01:16:10.755Z,95196.70
2018-07-06T01:18:50.497Z,95197.67
2018-07-06T01:21:30.100Z,95196.48
2018-07-06T01:24:09.835Z,95197.88
2018-07-06T01:26:49.682Z,95195.28
2018-07-06T01:29:29.343Z,95195.28
2018-07-06T01:32:09.046Z,95187.70
2018-07-06T01:34:48.779Z,95184.80
2018-07-06T01:37:28.621Z,95193.87
2018-07-06T01:40:08.444Z,95188.84
2018-07-06T01:42:48.224Z,95186.27
2018-07-06T01:45:27.881Z,95176.55
2018-07-06T01:48:07.452Z,95184.22
2018-07-06T01:50:47.285Z,95177.72
2018-07-06T01:53:27.027Z,95176.34
2018-07-06T01:56:06.839Z,95177.58
2018-07-06T01:58:46.588Z,95184.63
2018-07-06T02:01:26.243Z,95171.95
2018-07-06T02:04:05.787Z,95174.67
2018-07-06T02:06:45.675Z,95176.34
2018-07-06T02:09:25.526Z,95175.38
2018-07-06T02:12:05.222Z,95176.59
2018-07-06T02:14:44.786Z,95198.28
2018-07-06T02:17:24.491Z,95179.66
2018-07-06T02:20:04.040Z,95176.20
2018-07-06T02:22:43.782Z,95181.25
2018-07-06T02:25:23.369Z,95182.15
2018-07-06T02:28:02.938Z,95186.23
2018-07-06T02:30:42.786Z,95184.69
2018-07-06T02:33:22.669Z,95188.27
2018-07-06T02:36:02.462Z,95191.33
2018-07-06T02:38:42.227Z,95189.38
2018-07-06T02:41:22.111Z,95194.76
2018-07-06T02:44:01.814Z,95191.81
2018-07-06T02:46:41.611Z,95197.05
2018-07-06T02:49:21.191Z,95191.34
2018-07-06T02:52:00.982Z,95187.48
2018-07-06T02:54:40.736Z,95187.81
2018-07-06T02:57:20.536Z,95188.62
2018-07-06T03:00:00.411Z,95186.81
2018-07-06T03:02:40.171Z,95186.68
2018-07-06T03:05:19.895Z,95194.92
2018-07-06T03:07:59.616Z,95193.82
2018-07-06T03:10:39.196Z,95193.07
2018-07-06T03:13:18.999Z,95196.11
2018-07-06T03:15:58.736Z,95194.97
2018-07-06T03:18:38.436Z,95191.54
2018-07-06T03:21:18.102Z,95195.88
2018-07-06T03:23:57.651Z,95205.28
2018-07-06T03:26:37.411Z,95198.75
2018-07-06T03:29:17.457Z,95204.83
2018-07-06T03:31:57.077Z,95197.81
2018-07-06T03:34:36.719Z,95202.42
2018-07-06T03:37:16.553Z,95204.19
2018-07-06T03:39:56.300Z,95198.66
2018-07-06T03:42:36.028Z,95200.67
2018-07-06T03:45:15.763Z,95196.80
2018-07-06T03:47:55.704Z,95197.07
2018-07-06T03:50:35.548Z,95201.14
2018-07-06T03:53:15.283Z,95197.17
2018-07-06T03:55:55.133Z,95208.23
2018-07-06T03:58:34.831Z,95194.28
2018-07-06T04:01:14.487Z,95196.45
2018-07-06T04:03:54.203Z,95195.22
2018-07-06T04:06:33.930Z,95198.08
2018-07-06T04:09:13.793Z,95191.48
2018-07-06T04:11:53.632Z,95196.98
2018-07-06T04:14:33.504Z,95199.61
2018-07-06T04:17:13.351Z,95202.55
2018-07-06T04:19:53.093Z,95194.06
2018-07-06T04:22:32.777Z,95192.91
2018-07-06T04:25:12.564Z,95198.16
2018-07-06T04:27:52.316Z,95198.26
2018-07-06T04:30:31.949Z,95197.44
2018-07-06T04:33:11.823Z,95186.61
2018-07-06T04:35:51.790Z,95199.39
2018-07-06T04:38:31.615Z,95206.08
2018-07-06T04:41:11.175Z,95192.27
2018-07-06T04:43:51.161Z,95202.38
2018-07-06T04:46:31.264Z,95190.27
2018-07-06T04:49:10.758Z,95193.79
2018-07-06T04:51:50.477Z,95194.87
2018-07-06T04:54:30.347Z,95195.88
2018-07-06T04:57:10.120Z,95199.97
2018-07-06T04:59:49.977Z,95196.84
2018-07-06T05:02:29.714Z,95189.23
2018-07-06T05:05:09.644Z,95194.91
2018-07-06T05:07:49.164Z,95199.31
2018-07-06T05:10:28.975Z,95197.08
2018-07-06T05:13:08.811Z,95193.84
2018-07-06T05:15:48.445Z,95185.90
2018-07-06T05:18:28.203Z,95186.33
2018-07-06T05:21:07.975Z,95181.97
2018-07-06T05:23:47.916Z,95192.04
2018-07-06T05:26:27.631Z,95188.05
2018-07-06T05:29:07.195Z,95196.61
2018-07-06T05:31:46.984Z,95194.75
2018-07-06T05:34:26.687Z,95197.94
2018-07-06T05:37:06.787Z,95194.97
2018-07-06T05:39:46.649Z,95188.72
2018-07-06T05:42:26.298Z,95187.80
2018-07-06T05:45:06.033Z,95162.20
2018-07-06T05:47:45.834Z,95190.70
2018-07-06T05:50:25.533Z,95191.33
2018-07-06T05:53:05.246Z,95192.13
2018-07-06T05:55:44.958Z,95186.16
2018-07-06T05:58:24.748Z,95191.14
2018-07-06T06:01:04.488Z,95190.34
2018-07-06T06:03:44.260Z,95190.16
2018-07-06T06:06:24.187Z,95194.00
2018-07-06T06:08:51.598Z,95192.88
2018-07-06T06:11:20.298Z,95197.37
2018-07-06T06:13:48.967Z,95195.98
2018-07-06T06:16:17.613Z,95199.05
2018-07-06T06:18:46.349Z,95197.19
2018-07-06T06:21:14.914Z,95195.98
2018-07-06T06:23:43.573Z,95204.69
2018-07-06T06:26:12.547Z,95201.59
2018-07-06T06:28:41.263Z,95193.64
2018-07-06T06:31:10.003Z,95188.53
2018-07-06T06:33:39.081Z,95187.75
2018-07-06T06:36:07.729Z,95188.80
2018-07-06T06:38:36.424Z,95185.98
2018-07-06T06:41:05.076Z,95194.33
2018-07-06T06:43:33.783Z,95186.22
2018-07-06T06:46:02.460Z,95178.20
2018-07-06T06:48:31.119Z,95179.60
2018-07-06T06:50:59.888Z,95175.06
2018-07-06T06:53:28.589Z,95175.89
2018-07-06T06:55:57.278Z,95163.09
2018-07-06T06:58:26.080Z,95163.22
2018-07-06T07:00:55.015Z,95166.83
2018-07-06T07:03:24.191Z,95162.97
2018-07-06T07:05:52.911Z,95164.46
2018-07-06T07:08:21.842Z,95166.97
2018-07-06T07:10:50.607Z,95158.51
2018-07-06T07:13:19.420Z,95169.09
2018-07-06T07:15:48.195Z,95165.25
2018-07-06T07:18:16.902Z,95172.83
2018-07-06T07:20:45.693Z,95166.90
2018-07-06T07:23:14.689Z,95162.38
2018-07-06T07:25:43.763Z,95163.31
2018-07-06T07:28:12.570Z,95163.73
2018-07-06T07:30:41.282Z,95164.13
2018-07-06T07:33:10.050Z,95153.13
2018-07-06T07:35:39.139Z,95156.98
2018-07-06T07:38:07.839Z,95157.64
2018-07-06T07:40:36.988Z,95152.72
2018-07-06T07:43:05.692Z,95153.81
2018-07-06T07:45:34.403Z,95155.19
2018-07-06T07:48:03.206Z,95151.05
2018-07-06T07:50:31.859Z,95158.16
2018-07-06T07:53:11.668Z,95148.38
2018-07-06T07:55:40.436Z,95146.31
2018-07-06T07:58:09.178Z,95152.77
2018-07-06T08:00:37.937Z,95154.84
2018-07-06T08:03:06.834Z,95151.88
2018-07-06T08:05:35.570Z,95153.64
2018-07-06T08:08:04.313Z,95145.55
2018-07-06T08:10:33.092Z,95148.81
2018-07-06T08:13:01.939Z,95142.02
2018-07-06T08:15:30.600Z,95151.65
2018-07-06T08:17:59.244Z,95144.61
2018-07-06T08:20:27.892Z,95142.80
2018-07-06T08:22:56.799Z,95126.68
2018-07-06T08:25:25.616Z,95140.66
2018-07-06T08:27:55.434Z,95138.67
2018-07-06T08:30:24.191Z,95131.44
2018-07-06T08:32:52.992Z,95136.63
2018-07-06T08:35:32.895Z,95132.59
2018-07-06T08:38:06.567Z,95137.87
2018-07-06T08:40:35.420Z,95137.72
2018-07-06T08:43:05.308Z,95127.68
2018-07-06T08:45:34.564Z,95121.75
2018-07-06T08:48:03.311Z,95133.14
2018-07-06T08:50:32.067Z,95129.72
2018-07-06T08:53:00.714Z,95128.10
2018-07-06T08:55:29.496Z,95139.67
2018-07-06T08:57:58.906Z,95129.98
2018-07-06T09:00:27.532Z,95128.51
2018-07-06T09:02:56.146Z,95122.52
2018-07-06T09:05:24.777Z,95119.05
2018-07-06T09:07:53.488Z,95123.49
2018-07-06T09:10:22.162Z,95115.20
2018-07-06T09:12:50.815Z,95115.16
2018-07-06T09:15:19.456Z,95119.25
2018-07-06T09:17:48.073Z,95108.28
2018-07-06T09:20:16.954Z,95108.88
2018-07-06T09:22:45.434Z,95112.59
2018-07-06T09:25:14.080Z,95100.42
2018-07-06T09:27:42.706Z,95099.61
2018-07-06T09:30:11.747Z,95097.50
2018-07-06T09:32:40.390Z,95094.14
2018-07-06T09:35:09.008Z,95091.88
2018-07-06T09:37:37.656Z,95089.69
2018-07-06T09:40:06.288Z,95087.88
2018-07-06T09:42:34.950Z,95084.73
2018-07-06T09:45:03.650Z,95083.77
2018-07-06T09:47:32.318Z,95082.34
2018-07-06T09:50:00.950Z,95074.46
2018-07-06T09:52:29.624Z,95072.13
2018-07-06T09:54:58.583Z,95077.83
2018-07-06T09:57:27.285Z,95087.17
2018-07-06T09:59:55.948Z,95079.33
2018-07-06T10:02:24.571Z,95086.78
2018-07-06T10:04:53.521Z,95081.23
2018-07-06T10:07:22.176Z,95077.22
2018-07-06T10:09:50.862Z,95081.36
2018-07-06T10:12:19.419Z,95074.89
2018-07-06T10:14:48.036Z,95073.79
2018-07-06T10:17:16.699Z,95067.17
2018-07-06T10:19:45.406Z,95063.44
2018-07-06T10:22:14.021Z,95066.28
2018-07-06T10:24:42.666Z,95065.19
2018-07-06T10:27:11.433Z,95062.13
2018-07-06T10:29:51.057Z,95065.73
2018-07-06T10:32:24.213Z,95062.95
2018-07-06T10:34:52.829Z,95061.70
2018-07-06T10:37:21.723Z,95059.84
2018-07-06T10:39:50.990Z,95058.39
2018-07-06T10:42:19.723Z,95057.13
2018-07-06T10:44:48.533Z,95052.66
2018-07-06T10:47:17.379Z,95046.34
2018-07-06T10:49:46.097Z,95041.06
2018-07-06T10:52:16.435Z,95045.11
2018-07-06T10:54:45.617Z,95045.00
2018-07-06T10:57:14.296Z,95040.84
2018-07-06T10:59:42.916Z,95045.21
2018-07-06T11:02:11.656Z,95048.91
2018-07-06T11:04:40.297Z,95040.86
2018-07-06T11:07:08.918Z,95040.27
2018-07-06T11:09:37.842Z,95028.41
2018-07-06T11:12:06.524Z,95025.74
2018-07-06T11:14:35.208Z,95026.57
2018-07-06T11:17:04.124Z,95027.91
2018-07-06T11:19:33.115Z,95027.20
2018-07-06T11:22:01.804Z,95028.17
2018-07-06T11:24:30.455Z,95025.38
2018-07-06T11:26:59.087Z,95020.22
2018-07-06T11:29:27.726Z,95012.34
2018-07-06T11:31:56.359Z,95010.41
2018-07-06T11:34:24.975Z,95012.73
2018-07-06T11:36:53.656Z,95020.53
2018-07-06T11:39:22.727Z,95002.87
2018-07-06T11:41:51.392Z,95007.64
2018-07-06T11:44:20.448Z,95005.28
2018-07-06T11:46:49.138Z,95009.98
2018-07-06T11:49:17.781Z,95003.02
2018-07-06T11:51:46.475Z,95005.63
2018-07-06T11:54:15.099Z,95006.00
2018-07-06T11:56:43.798Z,95003.36
2018-07-06T11:59:13.238Z,94996.98
2018-07-06T12:01:41.973Z,95001.27
2018-07-06T12:04:11.165Z,94993.63
2018-07-06T12:06:39.800Z,94994.25
2018-07-06T12:09:08.549Z,94985.42
2018-07-06T12:11:37.326Z,94985.22
2018-07-06T12:14:06.017Z,94976.48
2018-07-06T12:16:34.728Z,94970.66
2018-07-06T12:19:03.739Z,94968.05
2018-07-06T12:21:32.474Z,94962.64
2018-07-06T12:24:01.117Z,94964.72
2018-07-06T12:26:29.787Z,94963.36
2018-07-06T12:28:58.423Z,94958.29
2018-07-06T12:31:27.056Z,94955.56
2018-07-06T12:33:55.741Z,94971.67
2018-07-06T12:36:24.448Z,94964.77
2018-07-06T12:38:53.138Z,94966.36
2018-07-06T12:41:22.582Z,94964.52
2018-07-06T12:43:51.348Z,94956.89
2018-07-06T12:46:20.013Z,94956.46
2018-07-06T12:48:48.784Z,94958.16
2018-07-06T12:51:17.423Z,94961.44
2018-07-06T12:53:46.120Z,94960.20
2018-07-06T12:56:15.887Z,94963.91
2018-07-06T12:58:44.721Z,94968.69
2018-07-06T13:01:13.321Z,94965.91
2018-07-06T13:03:42.007Z,94966.20
2018-07-06T13:06:10.720Z,94973.45
2018-07-06T13:08:39.398Z,94957.13
2018-07-06T13:11:08.092Z,94949.08
2018-07-06T13:13:36.748Z,94942.25
2018-07-06T13:16:05.803Z,94943.62
2018-07-06T13:18:34.595Z,94932.59
2018-07-06T13:21:03.316Z,94933.77
2018-07-06T13:23:32.047Z,94939.87
2018-07-06T13:26:00.824Z,94945.14
2018-07-06T13:28:29.525Z,94949.02
2018-07-06T13:30:58.279Z,94951.95
2018-07-06T13:33:27.071Z,94962.89
2018-07-06T13:35:55.704Z,94966.36
2018-07-06T13:38:24.335Z,94964.03
2018-07-06T13:40:53.076Z,94963.42
2018-07-06T13:43:22.419Z,94972.23
2018-07-06T13:45:51.132Z,94962.77
2018-07-06T13:48:19.875Z,94963.23
2018-07-06T13:50:48.533Z,94974.12
2018-07-06T13:53:17.216Z,94981.42
2018-07-06T13:55:45.907Z,94985.95
2018-07-06T13:58:14.622Z,94975.34
2018-07-06T14:00:43.334Z,94965.78
2018-07-06T14:03:12.092Z,94976.95
2018-07-06T14:05:40.766Z,94981.36
2018-07-06T14:08:09.419Z,94996.33
2018-07-06T14:10:38.416Z,94997.00
2018-07-06T14:13:07.141Z,95002.48
2018-07-06T14:15:35.833Z,95015.21
2018-07-06T14:18:04.620Z,95028.58
2018-07-06T14:20:33.284Z,95021.14
2018-07-06T14:23:01.998Z,95018.31
2018-07-06T14:25:30.679Z,95010.72
2018-07-06T14:27:59.398Z,95001.77
2018-07-06T14:30:28.150Z,95014.45
2018-07-06T14:32:56.816Z,95024.00
2018-07-06T14:35:25.559Z,95028.36
2018-07-06T14:37:54.235Z,95032.94
2018-07-06T14:40:22.895Z,95027.30
2018-07-06T14:42:51.555Z,95035.02
2018-07-06T14:45:20.255Z,95043.41
2018-07-06T14:47:49.012Z,95047.39
2018-07-06T14:50:17.825Z,95063.90
2018-07-06T14:52:46.532Z,95062.98
2018-07-06T14:55:15.396Z,95060.82
2018-07-06T14:57:44.145Z,95062.96
2018-07-06T15:00:13.004Z,95069.58
2018-07-06T15:02:41.655Z,95065.41
2018-07-06T15:05:10.436Z,95061.37
2018-07-06T15:07:39.199Z,95062.98
2018-07-06T15:10:07.927Z,95060.02
2018-07-06T15:12:36.742Z,95053.30
2018-07-06T15:15:05.439Z,95057.38
2018-07-06T15:17:34.132Z,95053.56
2018-07-06T15:20:02.875Z,95041.73
2018-07-06T15:22:31.588Z,95042.42
2018-07-06T15:25:00.318Z,95035.00
2018-07-06T15:27:29.022Z,95028.55
2018-07-06T15:29:57.723Z,95028.28
2018-07-06T15:32:26.437Z,95020.71
2018-07-06T15:34:55.131Z,95029.38
2018-07-06T15:37:23.940Z,95020.62
2018-07-06T15:39:52.626Z,95022.77
2018-07-06T15:42:22.530Z,95033.75
2018-07-06T15:44:51.223Z,95038.34
2018-07-06T15:47:19.925Z,95042.16
2018-07-06T15:49:48.745Z,95033.48
2018-07-06T15:52:17.901Z,95035.77
2018-07-06T15:54:47.486Z,95034.65
2018-07-06T15:57:16.681Z,95028.00
2018-07-06T15:59:45.274Z,95022.03
2018-07-06T16:02:14.052Z,95022.48
2018-07-06T16:04:42.717Z,95017.84
2018-07-06T16:07:11.468Z,95024.23
2018-07-06T16:09:40.130Z,95019.05
2018-07-06T16:12:08.914Z,95019.20
2018-07-06T16:14:37.615Z,95009.33
2018-07-06T16:17:06.326Z,95016.16
2018-07-06T16:19:35.106Z,95024.41
2018-07-06T16:22:04.315Z,95015.52
2018-07-06T16:24:32.976Z,95017.75
2018-07-06T16:27:01.677Z,95014.72
2018-07-06T16:29:30.330Z,95019.14
2018-07-06T16:31:59.096Z,95014.18
2018-07-06T16:34:27.827Z,95015.75
2018-07-06T16:36:56.572Z,95009.03
2018-07-06T16:39:25.234Z,95011.88
2018-07-06T16:41:54.027Z,95002.73
2018-07-06T16:44:22.740Z,94782.36
2018-07-06T16:46:51.554Z,94991.61
2018-07-06T16:49:20.199Z,94987.46
2018-07-06T16:51:49.303Z,94990.48
2018-07-06T16:54:18.035Z,94958.84
2018-07-06T16:56:46.730Z,94985.58
2018-07-06T16:59:15.467Z,94986.61
2018-07-06T17:01:44.249Z,94988.35
2018-07-06T17:04:12.918Z,94994.88
2018-07-06T17:06:41.634Z,94999.32
2018-07-06T17:09:10.373Z,95005.18
2018-07-06T17:11:39.210Z,95013.30
2018-07-06T17:14:07.998Z,95017.00
2018-07-06T17:16:36.670Z,95012.91
2018-07-06T17:19:05.334Z,95025.66
2018-07-06T17:21:34.918Z,95023.30
2018-07-06T17:24:03.599Z,95033.20
2018-07-06T17:26:32.276Z,95037.58
2018-07-06T17:29:00.925Z,95046.70
2018-07-06T17:31:29.627Z,95056.92
2018-07-06T17:33:58.459Z,95057.41
2018-07-06T17:36:27.345Z,95061.85
2018-07-06T17:38:56.081Z,95076.71
2018-07-06T17:41:24.869Z,95075.12
2018-07-06T17:43:53.650Z,95078.17
2018-07-06T17:46:22.374Z,95083.63
2018-07-06T17:48:51.075Z,95071.82
2018-07-06T17:51:19.772Z,95078.25
2018-07-06T17:53:48.466Z,95081.13
2018-07-06T17:56:17.344Z,95071.19
2018-07-06T17:58:46.627Z,95074.02
2018-07-06T18:01:16.196Z,95079.05
2018-07-06T18:03:45.435Z,95072.21
2018-07-06T18:06:14.147Z,95079.77
2018-07-06T18:08:43.622Z,95075.88
2018-07-06T18:11:13.322Z,95068.99
2018-07-06T18:13:42.087Z,95072.89
2018-07-06T18:16:11.679Z,95066.05
2018-07-06T18:18:40.743Z,95056.06
2018-07-06T18:21:09.823Z,95041.64
2018-07-06T18:23:38.904Z,95038.33
2018-07-06T18:26:07.674Z,95037.92
2018-07-06T18:28:36.571Z,95035.77
2018-07-06T18:31:05.593Z,95036.20
2018-07-06T18:33:34.487Z,95037.86
2018-07-06T18:36:03.585Z,95032.33
2018-07-06T18:38:32.774Z,95035.31
2018-07-06T18:41:01.978Z,94888.24
2018-07-06T18:43:30.732Z,95060.19
2018-07-06T18:45:59.391Z,95061.71
2018-07-06T18:48:28.118Z,95065.44
2018-07-06T18:50:57.426Z,95066.53
2018-07-06T18:53:26.199Z,95068.01
2018-07-06T18:55:54.913Z,95059.41
2018-07-06T18:58:23.669Z,95068.66
2018-07-06T19:00:52.514Z,95076.36
2018-07-06T19:03:21.316Z,95079.47
2018-07-06T19:05:50.007Z,95079.81
2018-07-06T19:08:18.731Z,95078.17
2018-07-06T19:10:47.515Z,95075.48
2018-07-06T19:13:16.214Z,95073.34
2018-07-06T19:15:45.426Z,95079.86
2018-07-06T19:18:14.181Z,95087.73
2018-07-06T19:20:42.955Z,95086.27
2018-07-06T19:23:11.631Z,95091.19
2018-07-06T19:25:40.347Z,95078.81
2018-07-06T19:28:09.023Z,95070.15
2018-07-06T19:30:37.786Z,95071.75
2018-07-06T19:33:06.516Z,95074.00
2018-07-06T19:35:35.327Z,94955.80
2018-07-06T19:38:04.004Z,95078.45
2018-07-06T19:40:32.687Z,95082.12
2018-07-06T19:43:01.340Z,95088.23
2018-07-06T19:45:30.023Z,95092.84
2018-07-06T19:47:58.721Z,95096.26
2018-07-06T19:50:27.652Z,95117.59
2018-07-06T19:52:56.330Z,95116.73
2018-07-06T19:55:24.966Z,95118.66
2018-07-06T19:57:53.703Z,95123.82
2018-07-06T20:00:23.614Z,95119.84
2018-07-06T20:02:54.574Z,95124.64
2018-07-06T20:05:23.283Z,95126.18
2018-07-06T20:07:52.935Z,95122.78
2018-07-06T20:10:21.603Z,95125.01
2018-07-06T20:12:50.310Z,95129.71
2018-07-06T20:15:20.631Z,95133.47
2018-07-06T20:17:50.506Z,95129.13
2018-07-06T20:20:19.298Z,95122.56
2018-07-06T20:22:48.123Z,95117.02
2018-07-06T20:25:17.666Z,95114.48
2018-07-06T20:27:46.408Z,95119.41
2018-07-06T20:30:15.138Z,95122.78
2018-07-06T20:32:44.234Z,95125.33
2018-07-06T20:35:12.939Z,95128.54
2018-07-06T20:37:41.616Z,95127.66
2018-07-06T20:40:10.403Z,95126.14
2018-07-06T20:42:39.129Z,95128.20
2018-07-06T20:45:07.907Z,95130.08
2018-07-06T20:47:36.901Z,95125.55
2018-07-06T20:50:05.943Z,95132.83
2018-07-06T20:52:34.617Z,95138.18
2018-07-06T20:55:03.388Z,95140.28
2018-07-06T20:57:32.144Z,95140.30
2018-07-06T21:00:00.861Z,95109.72
2018-07-06T21:02:29.671Z,95145.36
2018-07-06T21:04:58.323Z,95146.22
2018-07-06T21:07:26.959Z,95153.80
2018-07-06T21:09:55.633Z,95151.86
2018-07-06T21:12:24.348Z,95152.23
2018-07-06T21:14:53.049Z,95157.12
2018-07-06T21:17:22.090Z,95147.98
2018-07-06T21:19:50.766Z,95146.41
2018-07-06T21:22:19.558Z,95142.67
2018-07-06T21:24:48.204Z,95143.84
2018-07-06T21:27:16.850Z,95144.38
2018-07-06T21:29:45.482Z,95147.67
2018-07-06T21:32:14.224Z,95141.39
2018-07-06T21:34:42.922Z,95142.14
2018-07-06T21:37:11.646Z,95140.35
2018-07-06T21:39:40.358Z,95150.16
2018-07-06T21:42:09.111Z,95150.16
2018-07-06T21:44:37.832Z,95148.78
2018-07-06T21:47:06.498Z,95146.80
2018-07-06T21:49:35.248Z,95146.83
2018-07-06T21:52:03.993Z,95149.95
2018-07-06T21:54:32.596Z,95156.27
2018-07-06T21:57:01.271Z,95142.72
2018-07-06T21:59:29.941Z,95144.25
2018-07-06T22:01:58.599Z,95144.83
2018-07-06T22:04:27.278Z,95136.19
2018-07-06T22:06:55.954Z,95135.61
2018-07-06T22:09:24.681Z,95140.09
2018-07-06T22:11:53.390Z,95136.36
2018-07-06T22:14:22.116Z,95137.73
2018-07-06T22:16:50.835Z,95139.89
2018-07-06T22:19:19.580Z,95138.19
2018-07-06T22:21:48.316Z,95135.61
2018-07-06T22:24:17.026Z,95132.13
2018-07-06T22:26:45.865Z,95129.97
2018-07-06T22:29:14.547Z,95131.58
2018-07-06T22:31:43.232Z,95119.83
2018-07-06T22:34:11.906Z,95119.66
2018-07-06T22:36:40.648Z,95116.96
2018-07-06T22:39:09.644Z,95108.78
2018-07-06T22:41:38.347Z,95111.60
2018-07-06T22:44:07.112Z,95070.64
2018-07-06T22:46:35.883Z,95111.46
2018-07-06T22:49:04.593Z,95108.58
2018-07-06T22:51:33.256Z,95111.11
2018-07-06T22:54:02.159Z,95111.91
2018-07-06T22:56:30.820Z,95109.55
2018-07-06T22:58:59.494Z,95107.80
2018-07-06T23:01:28.250Z,95104.84
2018-07-06T23:03:56.966Z,95105.64
2018-07-06T23:06:25.724Z,95103.30
2018-07-06T23:08:54.372Z,95093.34
2018-07-06T23:11:23.114Z,95096.66
2018-07-06T23:13:51.828Z,95091.59
2018-07-06T23:16:20.555Z,95093.16
2018-07-06T23:18:49.259Z,95088.64
2018-07-06T23:21:17.970Z,95090.42
2018-07-06T23:23:46.721Z,95084.36
2018-07-06T23:26:15.388Z,95082.41
2018-07-06T23:28:44.084Z,95078.48
2018-07-06T23:31:13.380Z,95082.20
2018-07-06T23:33:42.040Z,95078.27
2018-07-06T23:36:10.691Z,95085.87
2018-07-06T23:38:39.391Z,95080.98
2018-07-06T23:41:08.031Z,95079.61
2018-07-06T23:43:36.738Z,95083.14
2018-07-06T23:46:05.451Z,95079.44
2018-07-06T23:48:34.144Z,95087.25
2018-07-06T23:51:02.804Z,95089.38
2018-07-06T23:53:31.480Z,95084.89
2018-07-06T23:56:00.121Z,95083.89
2018-07-06T23:58:28.754Z,95078.04
